createdAt,value
2023-03-29T00:02:48.917Z,1.20
2023-03-29T00:05:57.560Z,1.20
2023-03-29T00:09:01.960Z,1.20
2023-03-29T00:12:04.923Z,1.17
2023-03-29T00:15:09.034Z,1.20
2023-03-29T00:18:11.746Z,1.20
2023-03-29T00:21:14.126Z,0.90
2023-03-29T00:24:17.730Z,1.20
2023-03-29T00:27:21.964Z,1.10
2023-03-29T00:30:24.850Z,1.42
2023-03-29T00:33:27.950Z,1.40
2023-03-29T00:36:30.834Z,1.37
2023-03-29T00:39:33.316Z,1.20
2023-03-29T00:42:36.331Z,1.60
2023-03-29T00:45:39.089Z,1.55
2023-03-29T00:48:42.382Z,1.50
2023-03-29T00:51:45.955Z,1.30
2023-03-29T00:54:56.087Z,1.40
2023-03-29T00:58:01.052Z,1.40
2023-03-29T01:01:10.965Z,1.60
2023-03-29T01:04:24.069Z,1.50
2023-03-29T01:07:38.188Z,1.48
2023-03-29T01:10:47.244Z,1.40
2023-03-29T01:14:04.418Z,1.48
2023-03-29T01:17:07.783Z,1.50
2023-03-29T01:20:19.318Z,1.60
2023-03-29T01:23:54.362Z,1.52
2023-03-29T01:27:03.590Z,1.63
2023-03-29T01:30:14.197Z,1.30
2023-03-29T01:33:31.694Z,1.30
2023-03-29T01:36:41.683Z,1.50
2023-03-29T01:39:44.817Z,1.70
2023-03-29T01:43:11.617Z,1.70
2023-03-29T01:46:39.014Z,1.62
2023-03-29T01:49:48.438Z,1.60
2023-03-29T01:53:00.419Z,1.45
2023-03-29T01:56:13.276Z,1.08
2023-03-29T01:59:26.295Z,1.30
2023-03-29T02:02:31.017Z,1.65
2023-03-29T02:05:35.952Z,1.30
2023-03-29T02:08:42.021Z,1.70
2023-03-29T02:11:46.100Z,1.40
2023-03-29T02:14:49.231Z,1.33
2023-03-29T02:17:52.854Z,1.80
2023-03-29T02:20:57.564Z,1.55
2023-03-29T02:24:03.437Z,1.55
2023-03-29T02:27:06.491Z,1.60
2023-03-29T02:30:12.279Z,1.47
2023-03-29T02:33:24.104Z,1.80
2023-03-29T02:36:52.102Z,1.87
2023-03-29T02:39:55.054Z,1.20
2023-03-29T02:42:58.206Z,1.92
2023-03-29T02:46:02.656Z,1.60
2023-03-29T02:49:05.446Z,1.40
2023-03-29T02:52:18.307Z,1.55
2023-03-29T02:55:25.172Z,1.80
2023-03-29T02:58:28.887Z,1.50
2023-03-29T03:01:31.318Z,1.60
2023-03-29T03:04:35.728Z,1.87
2023-03-29T03:07:40.587Z,1.87
2023-03-29T03:10:43.503Z,2.00
2023-03-29T03:13:46.183Z,1.65
2023-03-29T03:16:49.562Z,2.17
2023-03-29T03:19:53.260Z,1.90
2023-03-29T03:22:57.536Z,1.75
2023-03-29T03:26:00.153Z,2.00
2023-03-29T03:29:03.422Z,1.67
2023-03-29T03:32:08.111Z,1.83
2023-03-29T03:35:12.930Z,1.70
2023-03-29T03:38:16.639Z,1.70
2023-03-29T03:41:19.695Z,2.17
2023-03-29T03:44:22.190Z,1.52
2023-03-29T03:47:28.431Z,1.97
2023-03-29T03:50:31.477Z,1.62
2023-03-29T03:53:34.346Z,2.33
2023-03-29T03:56:39.629Z,1.87
2023-03-29T03:59:42.746Z,2.05
2023-03-29T04:02:47.267Z,2.00
2023-03-29T04:05:50.627Z,2.03
2023-03-29T04:08:54.061Z,1.90
2023-03-29T04:12:01.624Z,1.73
2023-03-29T04:15:05.947Z,1.60
2023-03-29T04:18:08.911Z,1.80
2023-03-29T04:21:12.895Z,1.70
2023-03-29T04:24:17.285Z,1.67
2023-03-29T04:27:21.635Z,1.70
2023-03-29T04:30:24.524Z,1.92
2023-03-29T04:33:29.434Z,1.93
2023-03-29T04:36:33.967Z,1.60
2023-03-29T04:39:37.639Z,1.83
2023-03-29T04:42:45.929Z,1.67
2023-03-29T04:45:48.693Z,1.65
2023-03-29T04:48:52.290Z,1.67
2023-03-29T04:51:57.763Z,2.08
2023-03-29T04:55:02.957Z,1.75
2023-03-29T04:58:07.913Z,1.75
2023-03-29T05:01:11.139Z,1.70
2023-03-29T05:04:14.695Z,1.40
2023-03-29T05:07:19.231Z,1.80
2023-03-29T05:10:21.963Z,1.62
2023-03-29T05:13:25.477Z,1.30
2023-03-29T05:16:31.263Z,2.10
2023-03-29T05:19:36.516Z,1.60
2023-03-29T05:22:40.337Z,2.00
2023-03-29T05:25:43.982Z,1.60
2023-03-29T05:28:46.440Z,1.58
2023-03-29T05:31:49.607Z,1.75
2023-03-29T05:34:52.998Z,1.47
2023-03-29T05:37:56.471Z,2.17
2023-03-29T05:41:00.576Z,1.45
2023-03-29T05:44:06.354Z,1.90
2023-03-29T05:47:08.938Z,2.28
2023-03-29T05:50:11.909Z,1.80
2023-03-29T05:53:15.718Z,1.70
2023-03-29T05:56:19.425Z,2.00
2023-03-29T05:59:23.685Z,1.90
2023-03-29T06:02:28.470Z,1.75
2023-03-29T06:05:31.370Z,2.00
2023-03-29T06:08:35.123Z,2.40
2023-03-29T06:11:38.263Z,2.28
2023-03-29T06:14:43.357Z,2.37
2023-03-29T06:17:47.267Z,1.90
2023-03-29T06:20:51.240Z,1.77
2023-03-29T06:23:54.238Z,1.83
2023-03-29T06:26:57.422Z,1.90
2023-03-29T06:30:01.173Z,1.80
2023-03-29T06:33:03.841Z,1.83
2023-03-29T06:36:08.424Z,1.63
2023-03-29T06:39:11.281Z,1.65
2023-03-29T06:42:21.082Z,2.30
2023-03-29T06:45:31.514Z,3.25
2023-03-29T06:48:34.804Z,2.20
2023-03-29T06:51:37.986Z,1.70
2023-03-29T06:54:40.784Z,1.85
2023-03-29T06:57:43.712Z,1.80
2023-03-29T07:00:47.535Z,3.00
2023-03-29T07:03:50.383Z,1.85
2023-03-29T07:07:01.624Z,1.50
2023-03-29T07:10:05.725Z,1.62
2023-03-29T07:13:14.625Z,1.85
2023-03-29T07:16:19.460Z,2.10
2023-03-29T07:19:24.457Z,2.28
2023-03-29T07:22:31.405Z,2.13
2023-03-29T07:25:35.594Z,4.62
2023-03-29T07:28:39.369Z,1.67
2023-03-29T07:31:43.804Z,1.83
2023-03-29T07:34:51.343Z,3.22
2023-03-29T07:37:56.130Z,5.37
2023-03-29T07:40:59.721Z,2.10
2023-03-29T07:44:09.260Z,1.95
2023-03-29T07:47:12.961Z,1.30
2023-03-29T07:50:17.011Z,4.32
2023-03-29T07:53:19.574Z,2.13
2023-03-29T07:56:22.990Z,1.48
2023-03-29T07:59:26.829Z,1.52
2023-03-29T08:02:30.266Z,1.52
2023-03-29T08:05:41.411Z,1.62
2023-03-29T08:08:44.788Z,1.57
2023-03-29T08:11:48.014Z,1.23
2023-03-29T08:14:51.676Z,1.33
2023-03-29T08:17:55.111Z,1.15
2023-03-29T08:20:58.172Z,1.80
2023-03-29T08:24:01.748Z,1.80
2023-03-29T08:27:04.875Z,1.87
2023-03-29T08:30:09.638Z,1.92
2023-03-29T08:33:12.958Z,1.62
2023-03-29T08:36:16.262Z,1.90
2023-03-29T08:39:19.666Z,1.60
2023-03-29T08:42:39.127Z,1.70
2023-03-29T08:45:57.270Z,1.98
2023-03-29T08:49:04.630Z,2.03
2023-03-29T08:52:21.126Z,2.42
2023-03-29T08:55:33.876Z,2.07
2023-03-29T08:58:38.865Z,1.92
2023-03-29T09:01:43.779Z,2.45
2023-03-29T09:04:48.418Z,1.92
2023-03-29T09:07:53.379Z,1.70
2023-03-29T09:10:56.267Z,1.57
2023-03-29T09:14:21.021Z,2.47
2023-03-29T09:18:02.121Z,2.75
2023-03-29T09:21:16.828Z,1.60
2023-03-29T09:24:25.663Z,1.73
2023-03-29T09:27:43.857Z,2.30
2023-03-29T09:30:56.168Z,1.70
2023-03-29T09:34:03.463Z,1.58
2023-03-29T09:37:32.078Z,1.73
2023-03-29T09:40:42.773Z,2.00
2023-03-29T09:43:48.285Z,3.30
2023-03-29T09:46:58.818Z,1.37
2023-03-29T09:50:31.893Z,1.83
2023-03-29T09:53:36.298Z,1.60
2023-03-29T09:56:42.756Z,1.77
2023-03-29T09:59:48.695Z,1.60
2023-03-29T10:02:54.638Z,1.42
2023-03-29T10:06:05.213Z,1.83
2023-03-29T10:09:17.185Z,1.60
2023-03-29T10:12:20.906Z,2.28
2023-03-29T10:15:29.800Z,1.77
2023-03-29T10:18:39.211Z,1.70
2023-03-29T10:21:42.518Z,1.55
2023-03-29T10:24:49.492Z,1.92
2023-03-29T10:27:53.702Z,1.70
2023-03-29T10:30:59.933Z,1.70
2023-03-29T10:34:06.666Z,1.62
2023-03-29T10:37:12.379Z,1.90
2023-03-29T10:40:36.467Z,1.60
2023-03-29T10:43:44.171Z,1.52
2023-03-29T10:46:46.734Z,1.90
2023-03-29T10:49:58.889Z,1.83
2023-03-29T10:53:04.168Z,1.87
2023-03-29T10:56:29.036Z,1.50
2023-03-29T10:59:38.897Z,2.30
2023-03-29T11:02:57.277Z,1.30
2023-03-29T11:06:04.287Z,2.10
2023-03-29T11:09:32.164Z,1.80
2023-03-29T11:12:45.022Z,1.70
2023-03-29T11:16:13.023Z,1.60
2023-03-29T11:19:34.107Z,1.97
2023-03-29T11:22:52.444Z,2.20
2023-03-29T11:26:12.037Z,1.75
2023-03-29T11:29:23.175Z,1.73
2023-03-29T11:32:34.437Z,2.00
2023-03-29T11:36:05.141Z,1.87
2023-03-29T11:39:28.701Z,1.70
2023-03-29T11:42:36.119Z,2.30
2023-03-29T11:45:46.414Z,2.05
2023-03-29T11:49:25.614Z,1.65
2023-03-29T11:52:41.049Z,1.60
2023-03-29T11:55:44.856Z,1.87
2023-03-29T11:58:55.515Z,2.15
2023-03-29T12:02:24.818Z,1.60
2023-03-29T12:05:54.184Z,1.50
2023-03-29T12:09:04.102Z,1.80
2023-03-29T12:12:20.316Z,1.50
2023-03-29T12:15:26.535Z,1.65
2023-03-29T12:18:39.886Z,1.67
2023-03-29T12:21:44.655Z,1.60
2023-03-29T12:24:51.570Z,1.67
2023-03-29T12:28:21.605Z,1.80
2023-03-29T12:31:51.063Z,1.90
2023-03-29T12:35:32.028Z,2.17
2023-03-29T12:38:38.390Z,1.90
2023-03-29T12:41:48.826Z,1.93
2023-03-29T12:45:02.521Z,1.77
2023-03-29T12:48:08.573Z,1.80
2023-03-29T12:51:21.203Z,1.80
2023-03-29T12:54:28.569Z,1.98
2023-03-29T12:58:05.877Z,1.97
2023-03-29T13:01:31.536Z,2.30
2023-03-29T13:04:52.755Z,1.98
2023-03-29T13:07:56.101Z,1.90
2023-03-29T13:10:59.027Z,1.90
2023-03-29T13:14:13.972Z,2.13
2023-03-29T13:17:32.150Z,2.00
2023-03-29T13:20:51.596Z,2.20
2023-03-29T13:24:00.659Z,2.62
2023-03-29T13:27:22.032Z,3.45
2023-03-29T13:30:59.626Z,2.23
2023-03-29T13:34:31.040Z,2.75
2023-03-29T13:38:26.005Z,2.40
2023-03-29T13:41:29.014Z,2.65
2023-03-29T13:44:49.129Z,2.60
2023-03-29T13:48:05.440Z,2.47
2023-03-29T13:51:17.623Z,2.47
2023-03-29T13:54:58.082Z,2.50
2023-03-29T13:58:18.257Z,2.12
2023-03-29T14:01:30.621Z,2.10
2023-03-29T14:04:43.702Z,2.27
2023-03-29T14:07:54.910Z,2.35
2023-03-29T14:11:02.141Z,2.00
2023-03-29T14:14:08.191Z,1.95
2023-03-29T14:17:22.881Z,2.40
2023-03-29T14:20:33.417Z,2.40
2023-03-29T14:23:37.902Z,3.03
2023-03-29T14:26:46.611Z,2.45
2023-03-29T14:29:52.419Z,2.70
2023-03-29T14:32:56.769Z,2.65
2023-03-29T14:36:03.995Z,2.47
2023-03-29T14:39:20.230Z,2.90
2023-03-29T14:42:28.053Z,2.70
2023-03-29T14:45:31.025Z,2.20
2023-03-29T14:48:35.921Z,3.80
2023-03-29T14:51:40.585Z,2.53
2023-03-29T14:54:48.761Z,2.67
2023-03-29T14:57:54.703Z,2.87
2023-03-29T15:00:57.886Z,2.90
2023-03-29T15:04:09.188Z,3.17
2023-03-29T15:07:12.198Z,2.60
2023-03-29T15:10:19.438Z,3.05
2023-03-29T15:13:25.597Z,2.80
2023-03-29T15:16:32.185Z,2.70
2023-03-29T15:19:36.514Z,3.20
2023-03-29T15:22:41.500Z,2.30
2023-03-29T15:26:12.536Z,2.40
2023-03-29T15:29:23.702Z,2.47
2023-03-29T15:32:34.665Z,2.50
2023-03-29T15:35:38.041Z,3.08
2023-03-29T15:38:45.388Z,2.40
2023-03-29T15:41:50.475Z,2.10
2023-03-29T15:44:56.590Z,2.30
2023-03-29T15:48:04.759Z,2.30
2023-03-29T15:51:09.339Z,2.40
2023-03-29T15:54:11.915Z,2.10
2023-03-29T15:57:16.313Z,2.37
2023-03-29T16:00:21.287Z,2.25
2023-03-29T16:03:24.593Z,3.00
2023-03-29T16:06:27.307Z,2.35
2023-03-29T16:09:30.851Z,2.00
2023-03-29T16:12:35.832Z,2.40
2023-03-29T16:15:40.090Z,2.90
2023-03-29T16:18:43.077Z,3.10
2023-03-29T16:21:46.005Z,2.90
2023-03-29T16:24:48.517Z,2.77
2023-03-29T16:27:52.794Z,3.10
2023-03-29T16:30:55.473Z,2.67
2023-03-29T16:33:58.121Z,3.25
2023-03-29T16:37:01.316Z,2.50
2023-03-29T16:40:07.907Z,2.73
2023-03-29T16:43:16.174Z,2.40
2023-03-29T16:46:19.487Z,3.20
2023-03-29T16:49:22.453Z,3.35
2023-03-29T16:52:25.767Z,2.90
2023-03-29T16:55:28.472Z,2.90
2023-03-29T16:58:31.370Z,3.10
2023-03-29T17:01:33.837Z,2.72
2023-03-29T17:04:37.148Z,2.72
2023-03-29T17:07:39.850Z,2.70
2023-03-29T17:10:43.480Z,2.27
2023-03-29T17:13:46.279Z,2.75
2023-03-29T17:16:49.030Z,2.70
2023-03-29T17:19:51.768Z,2.30
2023-03-29T17:22:56.469Z,2.42
2023-03-29T17:26:01.873Z,2.53
2023-03-29T17:29:06.602Z,2.50
2023-03-29T17:32:10.059Z,2.50
2023-03-29T17:35:13.635Z,1.95
2023-03-29T17:38:16.726Z,2.30
2023-03-29T17:41:20.049Z,1.80
2023-03-29T17:44:22.585Z,2.10
2023-03-29T17:47:25.771Z,1.60
2023-03-29T17:50:28.317Z,2.05
2023-03-29T17:53:31.249Z,1.80
2023-03-29T17:56:34.124Z,1.33
2023-03-29T17:59:38.124Z,1.08
2023-03-29T18:02:41.708Z,1.48
2023-03-29T18:05:45.125Z,1.60
2023-03-29T18:08:48.115Z,1.30
2023-03-29T18:11:51.074Z,1.40
2023-03-29T18:14:53.722Z,1.85
2023-03-29T18:17:57.751Z,1.80
2023-03-29T18:21:00.854Z,1.52
2023-03-29T18:24:04.112Z,1.45
2023-03-29T18:27:07.499Z,1.83
2023-03-29T18:30:11.106Z,1.70
2023-03-29T18:33:14.061Z,1.80
2023-03-29T18:36:17.374Z,1.85
2023-03-29T18:39:19.944Z,2.15
2023-03-29T18:42:22.843Z,1.93
2023-03-29T18:45:25.376Z,1.48
2023-03-29T18:48:28.198Z,1.70
2023-03-29T18:51:33.024Z,1.60
2023-03-29T18:54:35.877Z,1.50
2023-03-29T18:57:38.807Z,1.67
2023-03-29T19:00:43.169Z,1.58
2023-03-29T19:03:45.948Z,1.50
2023-03-29T19:06:49.422Z,1.37
2023-03-29T19:09:52.179Z,1.60
2023-03-29T19:12:54.936Z,1.80
2023-03-29T19:15:57.489Z,1.87
2023-03-29T19:19:00.342Z,1.80
2023-03-29T19:22:03.688Z,1.30
2023-03-29T19:25:07.586Z,1.30
2023-03-29T19:28:10.345Z,1.63
2023-03-29T19:31:13.265Z,1.80
2023-03-29T19:34:19.747Z,1.40
2023-03-29T19:37:22.589Z,1.70
2023-03-29T19:40:25.494Z,1.95
2023-03-29T19:43:29.035Z,1.60
2023-03-29T19:46:32.170Z,1.80
2023-03-29T19:49:36.659Z,1.60
2023-03-29T19:52:39.427Z,1.73
2023-03-29T19:55:42.850Z,1.35
2023-03-29T19:58:46.842Z,1.60
2023-03-29T20:01:52.805Z,1.60
2023-03-29T20:04:57.666Z,1.67
2023-03-29T20:08:00.245Z,1.90
2023-03-29T20:11:04.397Z,1.65
2023-03-29T20:14:07.251Z,1.73
2023-03-29T20:17:10.133Z,1.90
2023-03-29T20:20:14.042Z,1.90
2023-03-29T20:23:17.274Z,2.37
2023-03-29T20:26:19.752Z,2.08
2023-03-29T20:29:22.524Z,1.90
2023-03-29T20:32:25.172Z,2.20
2023-03-29T20:35:27.978Z,2.03
2023-03-29T20:38:30.709Z,1.90
2023-03-29T20:41:33.897Z,1.90
2023-03-29T20:44:36.647Z,2.03
2023-03-29T20:47:42.639Z,1.90
2023-03-29T20:50:49.335Z,2.00
2023-03-29T20:53:52.345Z,1.60
2023-03-29T20:56:54.995Z,2.08
2023-03-29T20:59:57.885Z,2.13
2023-03-29T21:03:00.708Z,1.98
2023-03-29T21:06:03.881Z,2.70
2023-03-29T21:09:06.386Z,2.17
2023-03-29T21:12:09.907Z,2.37
2023-03-29T21:15:13.882Z,2.03
2023-03-29T21:18:16.990Z,2.00
2023-03-29T21:21:19.714Z,2.67
2023-03-29T21:24:22.613Z,2.80
2023-03-29T21:27:25.430Z,2.70
2023-03-29T21:30:31.421Z,4.80
2023-03-29T21:33:35.663Z,3.20
2023-03-29T21:36:39.844Z,4.18
2023-03-29T21:39:42.494Z,3.92
2023-03-29T21:42:45.403Z,4.28
2023-03-29T21:45:51.046Z,4.23
2023-03-29T21:48:54.233Z,4.20
2023-03-29T21:51:56.865Z,4.55
2023-03-29T21:55:00.577Z,4.28
2023-03-29T21:58:04.751Z,4.20
2023-03-29T22:01:10.193Z,3.93
2023-03-29T22:04:19.890Z,3.75
2023-03-29T22:07:28.426Z,3.10
2023-03-29T22:10:33.132Z,3.33
2023-03-29T22:13:36.240Z,3.40
2023-03-29T22:16:39.018Z,3.23
2023-03-29T22:19:41.924Z,3.67
2023-03-29T22:22:49.852Z,3.42
2023-03-29T22:25:52.404Z,3.60
2023-03-29T22:28:56.912Z,4.10
2023-03-29T22:31:59.443Z,3.93
2023-03-29T22:35:02.760Z,4.15
2023-03-29T22:38:05.223Z,5.30
2023-03-29T22:41:10.487Z,4.30
2023-03-29T22:44:13.248Z,4.55
2023-03-29T22:47:16.084Z,4.67
2023-03-29T22:50:18.569Z,4.47
2023-03-29T22:53:21.685Z,4.70
2023-03-29T22:56:24.861Z,4.87
2023-03-29T22:59:27.882Z,4.70
2023-03-29T23:02:30.580Z,5.10
2023-03-29T23:05:33.839Z,4.90
2023-03-29T23:08:36.363Z,5.22
2023-03-29T23:11:39.285Z,5.62
2023-03-29T23:14:42.891Z,5.62
2023-03-29T23:17:45.803Z,5.90
2023-03-29T23:20:50.399Z,6.10
2023-03-29T23:23:53.145Z,6.12
2023-03-29T23:26:55.594Z,5.65
2023-03-29T23:29:59.584Z,5.85
2023-03-29T23:33:02.554Z,5.97
2023-03-29T23:36:07.695Z,5.30
2023-03-29T23:39:10.176Z,5.28
2023-03-29T23:42:13.043Z,5.95
2023-03-29T23:45:21.180Z,5.60
2023-03-29T23:48:24.629Z,5.40
2023-03-29T23:51:28.257Z,4.72
2023-03-29T23:54:32.064Z,5.68
2023-03-29T23:57:37.755Z,4.72
